METAR Data
IDs: Format: Raw Decoded Include TAF

Data at: 2239 UTC 20 Nov 2018

KSEP 202235Z AUTO 05006KT 10SM CLR 14/M03 A3033 RMK AO2 T01371027
KSEP 202215Z AUTO 05005KT 10SM CLR 14/M03 A3033 RMK AO2 T01401028
KSEP 202155Z AUTO 07004KT 10SM CLR 15/M02 A3033 RMK AO2 T01461025
KSEP 202135Z AUTO 09006KT 10SM CLR 15/M02 A3033 RMK AO2 T01461023
KSEP 202115Z AUTO 04008KT 10SM CLR 15/M02 A3033 RMK AO2 T01451025
KSEP 202055Z AUTO 07005G14KT 10SM CLR 15/M02 A3033 RMK AO2 T01451025
KSEP 202035Z AUTO 07007KT 10SM CLR 15/M02 A3034 RMK AO2 T01481024
KSEP 202015Z AUTO 05007KT 10SM CLR 15/M02 A3035 RMK AO2 T01501018
KSEP 201955Z AUTO 01005KT 10SM CLR 15/M01 A3035 RMK AO2 T01451012
KSEP 201935Z AUTO 03005KT 10SM CLR 14/M01 A3036 RMK AO2 T01421009
KSEP 201915Z AUTO 06006KT 10SM CLR 14/M01 A3037 RMK AO2 T01411010
KSEP 201855Z AUTO 09007KT 10SM CLR 14/00 A3038 RMK AO2 T01361002
KSEP 201835Z AUTO 06007KT 10SM CLR 13/00 A3039 RMK AO2 T01311003
KSEP 201815Z AUTO 07005KT 10SM CLR 13/00 A3040 RMK AO2 T01311003
KSEP 201755Z AUTO 02005KT 10SM CLR 12/00 A3041 RMK AO2 T01241002 10126 20028
KSEP 201735Z AUTO 08006KT 10SM CLR 12/00 A3042 RMK AO2 T01210000
KSEP 201715Z AUTO 08007KT 050V110 10SM CLR 12/00 A3043 RMK AO2 T01190000
KSEP 201655Z AUTO 05006KT 10SM CLR 11/00 A3043 RMK AO2 T01070000
KSEP 201635Z AUTO 05007KT 10SM CLR 11/00 A3043 RMK AO2 T01050001
KSEP 201615Z AUTO 06009KT 10SM CLR 09/00 A3043 RMK AO2 T00910000
KSEP 201555Z AUTO 05008KT 10SM CLR 09/00 A3043 RMK AO2 T00861003
KSEP 201535Z AUTO 05006KT 10SM CLR 08/00 A3042 RMK AO2 T00810000
KSEP 201515Z AUTO 04006KT 10SM CLR 07/00 A3041 RMK AO2 T00730001
KSEP 201455Z AUTO 04007KT 10SM CLR 07/01 A3041 RMK AO2 T00670006
KSEP 201435Z AUTO 04006KT 10SM CLR 06/00 A3040 RMK AO2 T00580004
KSEP 201415Z AUTO 03006KT 10SM CLR 05/00 A3039 RMK AO2 T00490004
KSEP 201355Z AUTO 02006KT 10SM CLR 04/00 A3039 RMK AO2 T00400003
KSEP 201335Z AUTO 01007KT 10SM CLR 03/00 A3038 RMK AO2 T00330000
KSEP 201315Z AUTO 01007KT 10SM CLR 03/00 A3037 RMK AO2 T00281001
KSEP 201255Z AUTO 01007KT 10SM CLR 03/00 A3037 RMK AO2 T00310000
KSEP 201235Z AUTO 01008KT 10SM CLR 03/00 A3036 RMK AO2 T00320000
KSEP 201215Z AUTO 01007KT 10SM CLR 03/00 A3036 RMK AO2 T00310000
KSEP 201155Z AUTO 36008KT 10SM CLR 03/01 A3035 RMK AO2 T00320006 10032 20000
KSEP 201135Z AUTO 36007KT 10SM CLR 03/01 A3035 RMK AO2 T00250008
KSEP 201115Z AUTO 34006KT 10SM CLR 01/00 A3034 RMK AO2 T00051005
KSEP 201055Z AUTO 33005KT 10SM CLR 00/M01 A3033 RMK AO2 T00031007
KSEP 201035Z AUTO 31004KT 10SM CLR 00/M01 A3034 RMK AO2 T00011010
KSEP 201015Z AUTO 32003KT 10SM CLR 00/M01 A3033 RMK AO2 T00031009
KSEP 200955Z AUTO 32005KT 10SM CLR 01/M01 A3033 RMK AO2 T00061006
KSEP 200935Z AUTO 32005KT 10SM CLR 01/M01 A3033 RMK AO2 T00061006
KSEP 200915Z AUTO 32003KT 10SM CLR 01/00 A3033 RMK AO2 T00071005
KSEP 200855Z AUTO 00000KT 10SM CLR 01/00 A3032 RMK AO2 T00081005
KSEP 200835Z AUTO 00000KT 10SM CLR 01/00 A3033 RMK AO2 T00121003
KSEP 200815Z AUTO 00000KT 10SM CLR 02/00 A3032 RMK AO2 T00151001
KSEP 200755Z AUTO 32003KT 10SM CLR 01/00 A3032 RMK AO2 T00131002
KSEP 200735Z AUTO 32004KT 10SM CLR 02/00 A3032 RMK AO2 T00160000
KSEP 200715Z AUTO 32004KT 10SM CLR 02/00 A3032 RMK AO2 T00200000
KSEP 200655Z AUTO 32004KT 10SM CLR 02/00 A3031 RMK AO2 T00220001
KSEP 200635Z AUTO 32005KT 10SM CLR 02/00 A3031 RMK AO2 T00230001
KSEP 200610Z AUTO 32004KT 10SM CLR 03/00 A3030 RMK AO2 T00250004
KSEP 200555Z AUTO 32003KT 10SM CLR 03/00 A3030 RMK AO2 T00250002 10099 20025 401300020
KSEP 200535Z AUTO 32004KT 10SM CLR 03/01 A3030 RMK AO2 T00280005
KSEP 200515Z AUTO 32004KT 10SM CLR 03/01 A3029 RMK AO2 T00290005
KSEP 200455Z AUTO 32003KT 10SM CLR 03/01 A3029 RMK AO2 T00320008
KSEP 200435Z AUTO 34003KT 10SM CLR 04/01 A3029 RMK AO2 T00370011
KSEP 200415Z AUTO 33003KT 10SM CLR 04/01 A3028 RMK AO2 T00370010
KSEP 200355Z AUTO 00000KT 10SM CLR 05/01 A3028 RMK AO2 T00450013
KSEP 200335Z AUTO 00000KT 10SM CLR 04/01 A3027 RMK AO2 T00360010
KSEP 200315Z AUTO 31004KT 10SM CLR 05/01 A3026 RMK AO2 T00450013
KSEP 200255Z AUTO 32005KT 10SM CLR 05/02 A3026 RMK AO2 T00510016
KSEP 200235Z AUTO 32004KT 10SM CLR 06/02 A3026 RMK AO2 T00560015
KSEP 200215Z AUTO 00000KT 10SM CLR 06/02 A3026 RMK AO2 T00620019
KSEP 200155Z AUTO 34003KT 10SM CLR 06/01 A3025 RMK AO2 T00630011
KSEP 200135Z AUTO 00000KT 10SM CLR 07/02 A3025 RMK AO2 T00730015
KSEP 200115Z AUTO 00000KT 10SM CLR 08/01 A3024 RMK AO2 T00750013
KSEP 200055Z AUTO 00000KT 10SM CLR 08/02 A3023 RMK AO2 T00830015
KSEP 200035Z AUTO 03003KT 10SM CLR 09/01 A3022 RMK AO2 T00880013
KSEP 200015Z AUTO 03004KT 10SM CLR 09/02 A3021 RMK AO2 T00850015
KSEP 192355Z AUTO 03003KT 10SM CLR 10/02 A3021 RMK AO2 T01000015 10130 20083
KSEP 192335Z AUTO 03003KT 10SM CLR 10/02 A3021 RMK AO2 T01000016
KSEP 192315Z AUTO 02003KT 10SM CLR 11/02 A3020 RMK AO2 T01110015
KSEP 192255Z AUTO 03004KT 10SM CLR 12/02 A3019 RMK AO2 T01200016
KSEP 192235Z AUTO 04004KT 10SM CLR 13/02 A3019 RMK AO2 T01250015
KSEP 192215Z AUTO 00000KT 10SM CLR 13/01 A3019 RMK AO2 T01260014
KSEP 192155Z AUTO 36004KT 10SM CLR 13/01 A3017 RMK AO2 T01280013
KSEP 192135Z AUTO 02004KT 10SM CLR 13/01 A3018 RMK AO2 T01270009
KSEP 192115Z AUTO 01004KT 10SM CLR 13/01 A3019 RMK AO2 T01280007
KSEP 192055Z AUTO 30004KT 10SM CLR 12/01 A3019 RMK AO2 T01210005
KSEP 192035Z AUTO 34004KT 10SM CLR 12/00 A3019 RMK AO2 T01190002
KSEP 192015Z AUTO 01004KT 10SM CLR 12/00 A3019 RMK AO2 T01150002
KSEP 191955Z AUTO 04004KT 10SM CLR 11/00 A3019 RMK AO2 T01070001
KSEP 191935Z AUTO 36005KT 10SM BKN024 11/00 A3020 RMK AO2 T01080001
KSEP 191915Z AUTO 36004KT 10SM OVC024 10/00 A3021 RMK AO2 T01000000
KSEP 191855Z AUTO 03003KT 10SM OVC024 10/00 A3022 RMK AO2 T00960000
KSEP 191835Z AUTO 00000KT 10SM OVC024 09/00 A3023 RMK AO2 T00900000
KSEP 191815Z AUTO 00000KT 10SM OVC024 09/00 A3024 RMK AO2 T00891002
KSEP 191755Z AUTO 36005KT 10SM OVC024 08/00 A3026 RMK AO2 T00821002 10082 20030
KSEP 191735Z AUTO 00000KT 10SM OVC022 08/00 A3026 RMK AO2 T00821004
KSEP 191715Z AUTO 34005KT 10SM OVC022 08/00 A3027 RMK AO2 T00791004
KSEP 191655Z AUTO 02003KT 10SM OVC022 07/M01 A3027 RMK AO2 T00711007
KSEP 191635Z AUTO 02004KT 10SM BKN022 OVC027 07/M01 A3027 RMK AO2 T00701008
KSEP 191615Z AUTO 04003KT 10SM SCT022 OVC029 07/00 A3027 RMK AO2 T00711005
KSEP 191555Z AUTO 02006KT 10SM OVC029 07/M01 A3026 RMK AO2 T00701007
KSEP 191535Z AUTO 36006KT 10SM BKN022 OVC029 06/M01 A3026 RMK AO2 T00591009
KSEP 191515Z AUTO 35005KT 10SM OVC022 06/M01 A3026 RMK AO2 T00551008
KSEP 191455Z AUTO 33004KT 10SM OVC024 05/M01 A3027 RMK AO2 T00471009
KSEP 191435Z AUTO 33003KT 10SM OVC024 04/M01 A3026 RMK AO2 T00431007
KSEP 191415Z AUTO 33003KT 10SM OVC024 04/M01 A3026 RMK AO2 T00401007
KSEP 191355Z AUTO 00000KT 10SM OVC024 04/M01 A3026 RMK AO2 T00361006
KSEP 191335Z AUTO 36003KT 10SM OVC024 03/M01 A3024 RMK AO2 T00331008
KSEP 191315Z AUTO 00000KT 10SM OVC026 03/M01 A3024 RMK AO2 T00321009
KSEP 191255Z AUTO 00000KT 10SM OVC023 03/M01 A3023 RMK AO2 T00321010
KSEP 191235Z AUTO 00000KT 10SM OVC021 03/M01 A3023 RMK AO2 T00311008
KSEP 191215Z AUTO 00000KT 10SM OVC021 03/M01 A3023 RMK AO2 T00301010
KSEP 191155Z AUTO 00000KT 10SM OVC021 03/M01 A3023 RMK AO2 T00301010 10031 20020
KSEP 191135Z AUTO 34003KT 10SM OVC021 03/M01 A3022 RMK AO2 T00301010
KSEP 191115Z AUTO 36003KT 10SM BKN021 BKN028 OVC050 03/M01 A3022 RMK AO2 T00301011
KSEP 191055Z AUTO 02004KT 10SM OVC030 03/M01 A3022 RMK AO2 T00301010